createdAt,value
2017-06-10T00:00:47.761Z,7.00
2017-06-10T00:03:15.067Z,7.10
2017-06-10T00:05:41.765Z,6.62
2017-06-10T00:08:08.330Z,7.23
2017-06-10T00:10:34.929Z,6.82
2017-06-10T00:13:01.488Z,6.93
2017-06-10T00:15:28.070Z,7.50
2017-06-10T00:17:54.558Z,7.10
2017-06-10T00:20:21.154Z,6.57
2017-06-10T00:22:48.049Z,6.67
2017-06-10T00:25:14.664Z,6.00
2017-06-10T00:27:41.327Z,5.70
2017-06-10T00:30:07.918Z,5.90
2017-06-10T00:32:34.637Z,5.18
2017-06-10T00:35:01.975Z,4.90
2017-06-10T00:37:28.573Z,5.40
2017-06-10T00:39:55.283Z,5.00
2017-06-10T00:42:21.905Z,4.97
2017-06-10T00:44:48.493Z,4.90
2017-06-10T00:47:15.117Z,4.60
2017-06-10T00:49:41.705Z,5.30
2017-06-10T00:52:08.261Z,4.87
2017-06-10T00:54:34.885Z,4.50
2017-06-10T00:57:01.463Z,4.45
2017-06-10T00:59:28.106Z,4.55
2017-06-10T01:01:54.733Z,4.50
2017-06-10T01:04:21.335Z,4.60
2017-06-10T01:06:47.921Z,4.70
2017-06-10T01:09:14.722Z,4.28
2017-06-10T01:11:41.308Z,4.45
2017-06-10T01:14:07.969Z,4.45
2017-06-10T01:16:34.552Z,4.28
2017-06-10T01:19:01.170Z,4.35
2017-06-10T01:21:27.738Z,4.35
2017-06-10T01:24:01.353Z,4.30
2017-06-10T01:26:28.673Z,4.55
2017-06-10T01:28:55.317Z,4.93
2017-06-10T01:31:21.938Z,3.85
2017-06-10T01:33:49.312Z,4.43
2017-06-10T01:36:15.975Z,3.90
2017-06-10T01:38:43.316Z,3.90
2017-06-10T01:41:09.901Z,4.30
2017-06-10T01:43:36.405Z,3.50
2017-06-10T01:46:03.630Z,3.80
2017-06-10T01:48:30.881Z,4.80
2017-06-10T01:50:58.231Z,4.20
2017-06-10T01:53:24.847Z,4.32
2017-06-10T01:55:51.530Z,4.35
2017-06-10T01:58:18.167Z,4.60
2017-06-10T02:00:44.758Z,4.50
2017-06-10T02:03:12.192Z,4.80
2017-06-10T02:05:38.678Z,5.00
2017-06-10T02:08:05.350Z,4.70
2017-06-10T02:10:32.101Z,4.72
2017-06-10T02:12:59.354Z,4.65
2017-06-10T02:15:26.096Z,4.30
2017-06-10T02:17:52.684Z,4.20
2017-06-10T02:20:19.253Z,4.13
2017-06-10T02:22:45.944Z,4.15
2017-06-10T02:25:12.529Z,3.72
2017-06-10T02:27:39.109Z,4.20
2017-06-10T02:30:05.701Z,4.20
2017-06-10T02:32:32.284Z,3.95
2017-06-10T02:34:58.862Z,5.12
2017-06-10T02:37:25.615Z,3.30
2017-06-10T02:39:52.199Z,4.00
2017-06-10T02:42:18.837Z,3.42
2017-06-10T02:44:45.323Z,3.87
2017-06-10T02:47:11.957Z,3.00
2017-06-10T02:49:38.535Z,3.62
2017-06-10T02:52:05.172Z,4.30
2017-06-10T02:54:31.758Z,3.20
2017-06-10T02:56:58.073Z,4.55
2017-06-10T02:59:24.447Z,3.50
2017-06-10T03:01:50.801Z,3.87
2017-06-10T03:04:17.167Z,3.37
2017-06-10T03:06:43.501Z,4.10
2017-06-10T03:09:09.823Z,4.45
2017-06-10T03:11:36.368Z,3.65
2017-06-10T03:14:02.701Z,4.00
2017-06-10T03:16:29.101Z,3.35
2017-06-10T03:18:55.437Z,3.72
2017-06-10T03:21:21.906Z,4.45
2017-06-10T03:23:48.261Z,3.75
2017-06-10T03:26:15.449Z,3.85
2017-06-10T03:28:41.924Z,3.85
2017-06-10T03:31:09.005Z,3.42
2017-06-10T03:33:35.333Z,4.00
2017-06-10T03:36:01.694Z,3.20
2017-06-10T03:38:28.580Z,3.80
2017-06-10T03:40:54.912Z,4.95
2017-06-10T03:43:21.270Z,2.93
2017-06-10T03:45:48.773Z,4.12
2017-06-10T03:48:15.222Z,3.10
2017-06-10T03:50:41.561Z,3.08
2017-06-10T03:53:07.989Z,3.42
2017-06-10T03:55:34.397Z,4.00
2017-06-10T03:58:00.729Z,3.17
2017-06-10T04:00:27.167Z,3.83
2017-06-10T04:02:54.392Z,3.92
2017-06-10T04:05:20.720Z,4.12
2017-06-10T04:07:47.177Z,4.30
2017-06-10T04:10:13.529Z,4.15
2017-06-10T04:12:39.928Z,3.90
2017-06-10T04:15:06.317Z,3.47
2017-06-10T04:17:32.665Z,3.97
2017-06-10T04:19:59.023Z,3.58
2017-06-10T04:22:25.396Z,3.80
2017-06-10T04:24:51.728Z,3.22
2017-06-10T04:27:18.097Z,3.67
2017-06-10T04:29:44.461Z,4.12
2017-06-10T04:32:10.825Z,3.72
2017-06-10T04:34:37.165Z,3.03
2017-06-10T04:37:04.601Z,3.53
2017-06-10T04:39:31.013Z,3.72
2017-06-10T04:41:57.388Z,3.97
2017-06-10T04:44:23.762Z,3.20
2017-06-10T04:46:50.113Z,3.60
2017-06-10T04:49:16.456Z,3.78
2017-06-10T04:51:42.848Z,3.58
2017-06-10T04:54:09.256Z,4.00
2017-06-10T04:56:35.577Z,3.75
2017-06-10T04:59:01.929Z,3.92
2017-06-10T05:01:28.273Z,3.37
2017-06-10T05:04:01.493Z,4.17
2017-06-10T05:06:28.071Z,3.22
2017-06-10T05:08:54.413Z,4.03
2017-06-10T05:11:20.764Z,4.28
2017-06-10T05:13:47.109Z,3.62
2017-06-10T05:16:13.505Z,3.30
2017-06-10T05:18:40.573Z,3.50
2017-06-10T05:21:06.937Z,3.75
2017-06-10T05:23:33.310Z,3.30
2017-06-10T05:25:59.668Z,4.10
2017-06-10T05:28:26.889Z,3.50
2017-06-10T05:30:53.249Z,3.50
2017-06-10T05:33:19.616Z,3.70
2017-06-10T05:35:45.965Z,3.50
2017-06-10T05:38:12.472Z,4.47
2017-06-10T05:40:38.837Z,3.63
2017-06-10T05:43:05.193Z,3.53
2017-06-10T05:45:32.221Z,4.07
2017-06-10T05:47:58.845Z,3.00
2017-06-10T05:50:25.489Z,3.17
2017-06-10T05:52:52.054Z,3.80
2017-06-10T05:55:19.845Z,3.07
2017-06-10T05:57:46.422Z,3.40
2017-06-10T06:00:12.940Z,3.17
2017-06-10T06:02:39.465Z,3.37
2017-06-10T06:05:06.110Z,2.77
2017-06-10T06:07:32.686Z,3.80
2017-06-10T06:09:59.249Z,2.30
2017-06-10T06:12:26.568Z,3.43
2017-06-10T06:14:53.153Z,3.10
2017-06-10T06:17:20.526Z,2.90
2017-06-10T06:19:47.084Z,3.10
2017-06-10T06:22:13.841Z,3.30
2017-06-10T06:24:40.445Z,3.00
2017-06-10T06:27:07.801Z,3.07
2017-06-10T06:29:34.378Z,2.97
2017-06-10T06:32:01.122Z,3.00
2017-06-10T06:34:27.696Z,2.60
2017-06-10T06:36:54.289Z,2.50
2017-06-10T06:39:21.659Z,2.87
2017-06-10T06:41:48.210Z,2.40
2017-06-10T06:44:14.794Z,2.83
2017-06-10T06:46:41.250Z,3.27
2017-06-10T06:49:07.740Z,2.77
2017-06-10T06:51:34.321Z,2.50
2017-06-10T06:54:01.745Z,2.27
2017-06-10T06:56:28.325Z,2.60
2017-06-10T06:58:55.033Z,2.63
2017-06-10T07:01:21.714Z,3.10
2017-06-10T07:03:49.077Z,2.60
2017-06-10T07:06:15.648Z,1.90
2017-06-10T07:08:42.153Z,2.20
2017-06-10T07:11:08.745Z,2.20
2017-06-10T07:13:35.522Z,2.57
2017-06-10T07:16:02.130Z,2.60
2017-06-10T07:18:28.645Z,2.50
2017-06-10T07:20:55.286Z,2.00
2017-06-10T07:23:21.858Z,1.90
2017-06-10T07:25:48.358Z,2.10
2017-06-10T07:28:14.953Z,1.87
2017-06-10T07:30:41.575Z,1.80
2017-06-10T07:33:08.161Z,2.20
2017-06-10T07:35:34.663Z,2.17
2017-06-10T07:38:02.034Z,1.90
2017-06-10T07:40:28.652Z,1.97
2017-06-10T07:42:56.089Z,2.60
2017-06-10T07:45:22.673Z,1.57
2017-06-10T07:47:49.471Z,2.20
2017-06-10T07:50:16.015Z,2.20
2017-06-10T07:52:42.546Z,2.53
2017-06-10T07:55:09.286Z,1.97
2017-06-10T07:57:36.003Z,1.93
2017-06-10T08:00:02.554Z,1.80
2017-06-10T08:02:29.129Z,2.10
2017-06-10T08:04:55.725Z,2.13
2017-06-10T08:07:22.272Z,1.70
2017-06-10T08:09:49.681Z,2.40
2017-06-10T08:12:16.321Z,1.80
2017-06-10T08:14:42.887Z,1.77
2017-06-10T08:17:09.610Z,1.30
2017-06-10T08:19:37.215Z,1.70
2017-06-10T08:22:03.817Z,1.57
2017-06-10T08:24:30.391Z,1.40
2017-06-10T08:26:56.961Z,1.60
2017-06-10T08:29:23.577Z,1.13
2017-06-10T08:31:50.953Z,2.13
2017-06-10T08:34:17.681Z,1.27
2017-06-10T08:36:44.261Z,1.40
2017-06-10T08:39:10.921Z,1.77
2017-06-10T08:41:37.538Z,1.30
2017-06-10T08:44:04.517Z,1.47
2017-06-10T08:46:31.075Z,1.80
2017-06-10T08:48:58.393Z,2.07
2017-06-10T08:51:24.954Z,1.70
2017-06-10T08:53:51.745Z,1.60
2017-06-10T08:56:18.330Z,1.80
2017-06-10T08:58:45.541Z,1.67
2017-06-10T09:01:12.217Z,1.87
2017-06-10T09:03:38.781Z,1.40
2017-06-10T09:08:38.493Z,1.40
2017-06-10T09:11:05.102Z,1.37
2017-06-10T09:13:35.320Z,1.87
2017-06-10T09:16:03.694Z,1.60
2017-06-10T09:18:31.857Z,1.67
2017-06-10T09:21:06.370Z,1.80
2017-06-10T09:23:50.092Z,1.90
2017-06-10T09:26:48.901Z,1.23
2017-06-10T09:29:20.570Z,1.70
2017-06-10T09:31:46.956Z,1.20
2017-06-10T09:34:13.302Z,1.60
2017-06-10T09:36:39.646Z,1.37
2017-06-10T09:39:05.991Z,1.30
2017-06-10T09:41:32.344Z,1.40
2017-06-10T09:43:58.729Z,1.47
2017-06-10T09:46:25.102Z,1.80
2017-06-10T09:48:51.482Z,1.20
2017-06-10T09:51:17.845Z,1.67
2017-06-10T09:53:44.220Z,1.30
2017-06-10T09:56:10.569Z,1.30
2017-06-10T09:58:37.883Z,1.40
2017-06-10T10:01:04.221Z,1.30
2017-06-10T10:03:30.738Z,1.30
2017-06-10T10:05:57.242Z,1.50
2017-06-10T10:08:23.650Z,1.37
2017-06-10T10:10:50.001Z,1.20
2017-06-10T10:13:17.656Z,1.23
2017-06-10T10:15:44.086Z,1.90
2017-06-10T10:18:13.031Z,1.33
2017-06-10T10:20:39.469Z,1.30
2017-06-10T10:23:05.871Z,1.07
2017-06-10T10:25:32.253Z,1.30
2017-06-10T10:27:58.702Z,1.50
2017-06-10T10:30:25.069Z,1.20
2017-06-10T10:32:51.757Z,1.37
2017-06-10T10:35:19.236Z,1.50
2017-06-10T10:37:45.836Z,1.70
2017-06-10T10:40:12.422Z,1.50
2017-06-10T10:42:38.913Z,1.50
2017-06-10T10:45:05.474Z,1.00
2017-06-10T10:47:32.085Z,1.70
2017-06-10T10:49:58.673Z,1.37
2017-06-10T10:52:25.297Z,1.13
2017-06-10T10:54:51.959Z,1.20
2017-06-10T10:57:18.605Z,1.23
2017-06-10T10:59:45.201Z,1.30
2017-06-10T11:02:11.769Z,1.00
2017-06-10T11:04:38.384Z,1.13
2017-06-10T11:07:04.994Z,1.30
2017-06-10T11:09:31.585Z,1.70
2017-06-10T11:11:58.085Z,1.00
2017-06-10T11:14:24.525Z,1.83
2017-06-10T11:16:57.661Z,1.47
2017-06-10T11:19:24.253Z,1.53
2017-06-10T11:21:50.813Z,1.40
2017-06-10T11:24:17.397Z,1.80
2017-06-10T11:26:43.959Z,1.70
2017-06-10T11:29:10.471Z,1.83
2017-06-10T11:31:37.806Z,2.00
2017-06-10T11:34:04.406Z,1.20
2017-06-10T11:36:31.003Z,1.50
2017-06-10T11:38:57.468Z,1.20
2017-06-10T11:41:24.069Z,1.70
2017-06-10T11:43:51.365Z,1.03
2017-06-10T11:46:18.044Z,1.10
2017-06-10T11:48:44.604Z,1.03
2017-06-10T11:51:11.487Z,1.50
2017-06-10T11:53:37.997Z,1.77
2017-06-10T11:56:04.700Z,1.17
2017-06-10T11:58:31.265Z,1.40
2017-06-10T12:00:57.828Z,1.33
2017-06-10T12:03:24.585Z,1.00
2017-06-10T12:05:51.340Z,1.40
2017-06-10T12:08:17.998Z,1.70
2017-06-10T12:10:44.644Z,1.73
2017-06-10T12:13:11.232Z,1.13
2017-06-10T12:15:38.426Z,1.57
2017-06-10T12:18:05.022Z,1.43
2017-06-10T12:20:31.542Z,1.20
2017-06-10T12:22:58.105Z,1.40
2017-06-10T12:25:24.698Z,1.60
2017-06-10T12:27:51.295Z,1.40
2017-06-10T12:30:17.895Z,0.90
2017-06-10T12:32:46.427Z,1.30
2017-06-10T12:35:13.016Z,1.57
2017-06-10T12:37:40.438Z,1.10
2017-06-10T12:40:07.073Z,1.10
2017-06-10T12:42:33.645Z,1.17
2017-06-10T12:45:00.237Z,1.60
2017-06-10T12:47:26.813Z,1.30
2017-06-10T12:49:53.406Z,1.10
2017-06-10T12:52:19.980Z,1.37
2017-06-10T12:54:46.537Z,1.97
2017-06-10T12:57:13.191Z,1.30
2017-06-10T12:59:39.689Z,1.57
2017-06-10T13:02:06.386Z,1.20
2017-06-10T13:04:32.954Z,1.50
2017-06-10T13:07:00.269Z,1.60
2017-06-10T13:09:26.836Z,1.63
2017-06-10T13:11:53.442Z,1.43
2017-06-10T13:14:20.620Z,1.77
2017-06-10T13:16:47.204Z,1.60
2017-06-10T13:19:13.813Z,1.50
2017-06-10T13:21:40.337Z,2.20
2017-06-10T13:24:07.003Z,1.40
2017-06-10T13:26:33.501Z,1.83
2017-06-10T13:29:01.302Z,1.80
2017-06-10T13:31:27.881Z,1.80
2017-06-10T13:33:54.445Z,1.70
2017-06-10T13:36:21.065Z,1.70
2017-06-10T13:38:47.677Z,1.63
2017-06-10T13:41:14.129Z,1.80
2017-06-10T13:43:40.588Z,1.70
2017-06-10T13:46:07.181Z,2.00
2017-06-10T13:48:33.794Z,2.00
2017-06-10T13:51:00.393Z,1.93
2017-06-10T13:53:32.364Z,1.70
2017-06-10T13:55:58.957Z,2.10
2017-06-10T13:58:25.525Z,1.70
2017-06-10T14:00:52.885Z,2.10
2017-06-10T14:03:19.437Z,1.87
2017-06-10T14:05:46.025Z,2.80
2017-06-10T14:08:13.381Z,2.10
2017-06-10T14:10:39.866Z,2.10
2017-06-10T14:13:06.461Z,1.97
2017-06-10T14:15:32.966Z,1.47
2017-06-10T14:17:59.577Z,2.00
2017-06-10T14:20:26.141Z,1.83
2017-06-10T14:22:53.874Z,2.20
2017-06-10T14:25:20.480Z,2.00
2017-06-10T14:27:47.037Z,2.17
2017-06-10T14:30:13.634Z,2.07
2017-06-10T14:32:40.129Z,2.20
2017-06-10T14:35:06.721Z,2.27
2017-06-10T14:37:33.279Z,2.00
2017-06-10T14:39:59.765Z,2.03
2017-06-10T14:42:27.087Z,1.70
2017-06-10T14:44:53.685Z,1.73
2017-06-10T14:47:20.277Z,2.10
2017-06-10T14:49:46.889Z,1.60
2017-06-10T14:52:13.468Z,1.70
2017-06-10T14:54:40.026Z,1.43
2017-06-10T14:57:06.630Z,1.50
2017-06-10T14:59:36.929Z,1.73
2017-06-10T15:02:03.721Z,1.90
2017-06-10T15:04:30.273Z,1.80
2017-06-10T15:06:56.902Z,2.20
2017-06-10T15:09:23.427Z,1.83
2017-06-10T15:11:50.009Z,1.50
2017-06-10T15:14:16.637Z,1.70
2017-06-10T15:16:48.033Z,1.87
2017-06-10T15:19:14.621Z,1.90
2017-06-10T15:21:41.200Z,1.33
2017-06-10T15:24:08.534Z,1.73
2017-06-10T15:26:35.874Z,1.60
2017-06-10T15:29:03.281Z,1.97
2017-06-10T15:31:36.182Z,2.10
2017-06-10T15:34:02.766Z,2.17
2017-06-10T15:36:29.431Z,2.00
2017-06-10T15:38:55.990Z,1.80
2017-06-10T15:41:22.597Z,2.87
2017-06-10T15:43:49.168Z,3.07
2017-06-10T15:46:15.661Z,3.30
2017-06-10T15:48:46.139Z,2.30
2017-06-10T15:51:12.774Z,3.00
2017-06-10T15:53:39.365Z,2.40
2017-06-10T15:56:05.899Z,1.93
2017-06-10T15:58:33.327Z,2.80
2017-06-10T16:00:59.921Z,2.90
2017-06-10T16:03:26.533Z,1.87
2017-06-10T16:05:53.185Z,2.30
2017-06-10T16:08:19.822Z,2.10
2017-06-10T16:10:46.334Z,2.97
2017-06-10T16:13:12.947Z,2.00
2017-06-10T16:15:39.512Z,1.53
2017-06-10T16:18:06.157Z,1.73
2017-06-10T16:20:33.487Z,1.93
2017-06-10T16:23:00.481Z,1.80
2017-06-10T16:25:27.271Z,2.10
2017-06-10T16:27:53.829Z,1.60
2017-06-10T16:30:20.393Z,1.67
2017-06-10T16:32:46.961Z,2.20
2017-06-10T16:35:13.544Z,1.97
2017-06-10T16:37:40.174Z,1.67
2017-06-10T16:40:06.742Z,2.03
2017-06-10T16:42:34.064Z,1.70
2017-06-10T16:45:00.652Z,2.20
2017-06-10T16:47:27.350Z,1.30
2017-06-10T16:49:54.649Z,1.63
2017-06-10T16:52:21.400Z,2.00
2017-06-10T16:54:48.243Z,1.80
2017-06-10T16:57:16.083Z,2.20
2017-06-10T16:59:42.812Z,2.30
2017-06-10T17:02:09.297Z,1.80
2017-06-10T17:04:36.699Z,1.73
2017-06-10T17:07:03.189Z,2.00
2017-06-10T17:09:45.129Z,2.20
2017-06-10T17:12:12.339Z,1.90
2017-06-10T17:14:38.815Z,1.90
2017-06-10T17:17:06.405Z,2.50
2017-06-10T17:19:33.085Z,2.20
2017-06-10T17:22:00.928Z,2.23
2017-06-10T17:24:27.489Z,2.47
2017-06-10T17:26:54.905Z,1.83
2017-06-10T17:29:21.541Z,1.53
2017-06-10T17:31:48.869Z,2.60
2017-06-10T17:34:15.407Z,2.03
2017-06-10T17:36:42.004Z,1.77
2017-06-10T17:39:08.384Z,2.50
2017-06-10T17:41:34.713Z,4.13
2017-06-10T17:44:02.081Z,2.83
2017-06-10T17:46:28.472Z,2.97
2017-06-10T17:48:54.873Z,3.10
2017-06-10T17:51:21.229Z,2.63
2017-06-10T17:53:47.537Z,3.53
2017-06-10T17:56:14.650Z,4.57
2017-06-10T17:58:41.029Z,2.93
2017-06-10T18:01:07.465Z,2.17
2017-06-10T18:03:34.706Z,2.30
2017-06-10T18:06:01.200Z,2.73
2017-06-10T18:08:27.703Z,2.27
2017-06-10T18:10:54.063Z,1.70
2017-06-10T18:13:20.385Z,2.17
2017-06-10T18:15:46.705Z,1.97
2017-06-10T18:18:13.077Z,1.90
2017-06-10T18:20:39.726Z,2.53
2017-06-10T18:23:06.349Z,2.20
2017-06-10T18:25:33.046Z,2.40
2017-06-10T18:28:00.107Z,2.23
2017-06-10T18:30:32.529Z,2.60
2017-06-10T18:32:58.953Z,2.20
2017-06-10T18:35:25.283Z,2.83
2017-06-10T18:37:51.729Z,2.50
2017-06-10T18:40:18.053Z,3.07
2017-06-10T18:42:44.774Z,2.20
2017-06-10T18:45:11.101Z,1.90
2017-06-10T18:47:37.489Z,2.67
2017-06-10T18:50:04.017Z,2.07
2017-06-10T18:52:31.101Z,2.33
2017-06-10T18:54:57.465Z,2.23
2017-06-10T18:57:23.947Z,2.23
2017-06-10T18:59:50.469Z,2.20
2017-06-10T19:02:17.035Z,2.30
2017-06-10T19:04:44.122Z,2.43
2017-06-10T19:07:10.658Z,2.50
2017-06-10T19:09:37.524Z,2.53
2017-06-10T19:12:04.765Z,2.63
2017-06-10T19:14:31.606Z,2.57
2017-06-10T19:16:58.192Z,2.30
2017-06-10T19:19:24.753Z,2.57
2017-06-10T19:21:51.321Z,3.00
2017-06-10T19:24:17.890Z,2.63
2017-06-10T19:26:44.421Z,3.10
2017-06-10T19:29:11.008Z,2.57
2017-06-10T19:31:37.779Z,2.70
2017-06-10T19:34:04.384Z,2.57
2017-06-10T19:36:31.506Z,2.90
2017-06-10T19:38:58.019Z,3.30
2017-06-10T19:41:24.600Z,2.97
2017-06-10T19:43:51.105Z,3.70
2017-06-10T19:46:17.895Z,3.23
2017-06-10T19:48:45.337Z,3.13
2017-06-10T19:51:12.554Z,2.70
2017-06-10T19:53:39.329Z,3.00
2017-06-10T19:56:10.382Z,3.07
2017-06-10T19:58:38.121Z,3.50
2017-06-10T20:01:04.833Z,3.70
2017-06-10T20:03:31.573Z,4.43
2017-06-10T20:05:58.162Z,4.07
2017-06-10T20:08:24.962Z,4.13
2017-06-10T20:10:52.489Z,4.47
2017-06-10T20:13:19.877Z,3.80
2017-06-10T20:15:46.581Z,3.67
2017-06-10T20:18:13.045Z,3.67
2017-06-10T20:20:40.773Z,3.80
2017-06-10T20:23:07.406Z,3.13
2017-06-10T20:25:34.210Z,3.40
2017-06-10T20:28:00.902Z,3.17
2017-06-10T20:30:27.821Z,3.00
2017-06-10T20:32:54.448Z,3.40
2017-06-10T20:35:21.182Z,3.47
2017-06-10T20:37:47.797Z,3.50
2017-06-10T20:40:15.180Z,3.20
2017-06-10T20:42:41.788Z,4.00
2017-06-10T20:45:09.265Z,3.50
2017-06-10T20:47:35.854Z,3.50
2017-06-10T20:50:02.516Z,3.60
2017-06-10T20:52:29.038Z,4.10
2017-06-10T20:54:56.574Z,4.00
2017-06-10T20:57:23.205Z,3.73
2017-06-10T20:59:49.838Z,3.97
2017-06-10T21:02:19.911Z,3.90
2017-06-10T21:04:46.646Z,3.70
2017-06-10T21:07:13.196Z,3.50
2017-06-10T21:09:39.824Z,4.00
2017-06-10T21:12:06.356Z,3.70
2017-06-10T21:14:33.742Z,3.50
2017-06-10T21:17:00.332Z,3.60
2017-06-10T21:19:26.928Z,3.10
2017-06-10T21:21:53.523Z,3.70
2017-06-10T21:24:20.105Z,4.30
2017-06-10T21:26:46.937Z,3.63
2017-06-10T21:29:13.658Z,4.00
2017-06-10T21:31:40.386Z,3.67
2017-06-10T21:34:07.012Z,3.83
2017-06-10T21:36:33.593Z,3.93
2017-06-10T21:39:00.178Z,3.97
2017-06-10T21:41:26.753Z,4.10
2017-06-10T21:43:53.270Z,4.10
2017-06-10T21:46:19.838Z,4.70
2017-06-10T21:48:46.417Z,4.27
2017-06-10T21:51:13.730Z,4.27
2017-06-10T21:53:40.377Z,4.17
2017-06-10T21:56:07.769Z,4.50
2017-06-10T21:58:34.485Z,4.50
2017-06-10T22:01:01.111Z,4.40
2017-06-10T22:03:27.745Z,4.23
2017-06-10T22:05:54.589Z,3.80
2017-06-10T22:08:21.153Z,4.73
2017-06-10T22:10:47.833Z,4.57
2017-06-10T22:13:14.269Z,4.87
2017-06-10T22:15:40.864Z,4.80
2017-06-10T22:18:07.452Z,4.23
2017-06-10T22:20:34.073Z,5.30
2017-06-10T22:23:01.456Z,4.80
2017-06-10T22:25:28.204Z,4.43
2017-06-10T22:27:55.589Z,4.30
2017-06-10T22:30:22.976Z,5.00
2017-06-10T22:32:49.541Z,4.60
2017-06-10T22:35:16.124Z,5.03
2017-06-10T22:37:42.711Z,5.00
2017-06-10T22:40:09.355Z,5.23
2017-06-10T22:42:35.969Z,5.27
2017-06-10T22:45:02.545Z,5.17
2017-06-10T22:47:29.107Z,4.20
2017-06-10T22:49:55.838Z,5.03
2017-06-10T22:52:22.413Z,5.07
2017-06-10T22:54:48.873Z,4.90
2017-06-10T22:57:15.493Z,4.60
2017-06-10T22:59:42.078Z,4.87
2017-06-10T23:02:09.394Z,4.50
2017-06-10T23:04:35.982Z,4.57
2017-06-10T23:07:02.742Z,4.40
2017-06-10T23:09:29.203Z,3.97
2017-06-10T23:11:56.697Z,4.90
2017-06-10T23:14:23.248Z,4.33
2017-06-10T23:16:49.735Z,4.70
2017-06-10T23:19:16.317Z,4.20
2017-06-10T23:21:43.120Z,4.40
2017-06-10T23:24:09.637Z,4.50
2017-06-10T23:26:36.270Z,4.20
2017-06-10T23:29:02.946Z,4.03
2017-06-10T23:31:29.506Z,4.10
2017-06-10T23:33:56.093Z,3.30
2017-06-10T23:36:22.649Z,3.50
2017-06-10T23:38:49.248Z,3.70
2017-06-10T23:41:15.753Z,3.80
2017-06-10T23:43:42.330Z,3.80
2017-06-10T23:46:08.919Z,4.23
2017-06-10T23:48:35.497Z,3.10
2017-06-10T23:51:03.169Z,3.27
2017-06-10T23:53:29.709Z,2.93
2017-06-10T23:55:56.309Z,3.60
2017-06-10T23:58:22.889Z,2.93
